createdAt,value
2022-11-05T00:03:29.500Z,100058.59
2022-11-05T00:08:49.666Z,100068.63
2022-11-05T00:14:09.588Z,100071.13
2022-11-05T00:19:11.181Z,100069.66
2022-11-05T00:24:31.673Z,100081.25
2022-11-05T00:29:33.259Z,100083.66
2022-11-05T00:34:34.746Z,100087.72
2022-11-05T00:39:36.401Z,100090.28
2022-11-05T00:44:57.053Z,100089.41
2022-11-05T00:49:58.536Z,100102.34
2022-11-05T00:55:00.182Z,100110.88
2022-11-05T01:00:01.646Z,100113.41
2022-11-05T01:05:03.759Z,100121.47
2022-11-05T01:10:06.013Z,100126.31
2022-11-05T01:15:08.070Z,100135.03
2022-11-05T01:20:10.599Z,100129.38
2022-11-05T01:25:12.097Z,100122.06
2022-11-05T01:30:14.294Z,100126.03
2022-11-05T01:35:17.788Z,100125.81
2022-11-05T01:40:21.301Z,100132.50
2022-11-05T01:45:25.489Z,100136.81
2022-11-05T01:50:31.351Z,100143.66
2022-11-05T01:55:36.857Z,100151.09
2022-11-05T02:00:41.087Z,100155.81
2022-11-05T02:05:43.494Z,100162.22
2022-11-05T02:10:46.195Z,100168.72
2022-11-05T02:16:08.644Z,100169.19
2022-11-05T02:21:34.333Z,100167.31
2022-11-05T02:26:50.214Z,100166.13
2022-11-05T02:31:59.558Z,100165.09
2022-11-05T02:37:14.528Z,100162.88
2022-11-05T02:42:18.693Z,100167.41
2022-11-05T02:47:33.805Z,100165.16
2022-11-05T02:52:53.670Z,100186.06
2022-11-05T02:57:55.317Z,100186.63
2022-11-05T03:02:57.551Z,100192.38
2022-11-05T03:08:10.488Z,100205.50
2022-11-05T03:13:25.410Z,100203.06
2022-11-05T03:18:52.563Z,100201.47
2022-11-05T03:24:02.164Z,100202.03
2022-11-05T03:29:09.989Z,100216.13
2022-11-05T03:34:14.125Z,100219.09
2022-11-05T03:39:23.102Z,100225.59
2022-11-05T03:44:28.636Z,100228.47
2022-11-05T03:49:36.469Z,100235.16
2022-11-05T03:54:38.131Z,100239.44
2022-11-05T03:59:43.581Z,100245.66
2022-11-05T04:04:46.353Z,100246.31
2022-11-05T04:10:07.324Z,100249.34
2022-11-05T04:15:09.108Z,100253.59
2022-11-05T04:20:29.429Z,100251.56
2022-11-05T04:25:30.945Z,100259.47
2022-11-05T04:30:32.395Z,100256.94
2022-11-05T04:35:46.044Z,100270.47
2022-11-05T04:40:48.219Z,100275.75
2022-11-05T04:45:49.725Z,100284.19
2022-11-05T04:50:51.148Z,100282.34
2022-11-05T04:55:52.667Z,100285.88
2022-11-05T05:00:56.666Z,100294.75
2022-11-05T05:06:04.056Z,100297.94
2022-11-05T05:11:11.344Z,100304.94
2022-11-05T05:16:38.995Z,100307.53
2022-11-05T05:21:41.005Z,100308.28
2022-11-05T05:26:46.347Z,100301.53
2022-11-05T05:31:47.867Z,100307.94
2022-11-05T05:36:49.420Z,100311.63
2022-11-05T05:41:51.315Z,100321.91
2022-11-05T05:46:55.458Z,100322.25
2022-11-05T05:51:57.480Z,100338.47
2022-11-05T05:56:58.981Z,100340.56
2022-11-05T06:02:00.722Z,100347.31
2022-11-05T06:07:02.777Z,100351.16
2022-11-05T06:12:04.618Z,100360.88
2022-11-05T06:17:08.780Z,100364.41
2022-11-05T06:22:10.571Z,100378.22
2022-11-05T06:27:12.069Z,100381.44
2022-11-05T06:32:13.571Z,100386.25
2022-11-05T06:37:15.017Z,100395.38
2022-11-05T06:42:19.089Z,100399.56
2022-11-05T06:47:21.261Z,100407.09
2022-11-05T06:52:22.840Z,100405.72
2022-11-05T06:57:24.400Z,100411.41
2022-11-05T07:02:25.954Z,100432.50
2022-11-05T07:07:27.565Z,100436.53
2022-11-05T07:12:29.048Z,100443.97
2022-11-05T07:17:30.591Z,100450.50
2022-11-05T07:22:32.521Z,100457.16
2022-11-05T07:27:39.138Z,100467.19
2022-11-05T07:32:41.145Z,100477.09
2022-11-05T07:37:47.510Z,100484.56
2022-11-05T07:42:53.937Z,100480.44
2022-11-05T07:48:00.736Z,100500.66
2022-11-05T07:53:07.659Z,100505.03
2022-11-05T07:58:11.036Z,100506.19
2022-11-05T08:03:15.003Z,100510.66
2022-11-05T08:08:18.680Z,100522.16
2022-11-05T08:13:20.145Z,100526.88
2022-11-05T08:18:22.990Z,100525.28
2022-11-05T08:23:24.632Z,100533.63
2022-11-05T08:28:27.786Z,100528.06
2022-11-05T08:33:31.393Z,100538.94
2022-11-05T08:38:33.103Z,100537.44
2022-11-05T08:43:34.670Z,100542.97
2022-11-05T08:48:36.297Z,100548.06
2022-11-05T08:53:37.855Z,100558.19
2022-11-05T08:58:39.530Z,100553.75
2022-11-05T09:03:41.557Z,100552.09
2022-11-05T09:08:45.551Z,100554.44
2022-11-05T09:13:47.208Z,100552.59
2022-11-05T09:18:50.435Z,100546.16
2022-11-05T09:23:51.876Z,100560.97
2022-11-05T09:28:53.976Z,100562.91
2022-11-05T09:33:55.531Z,100558.72
2022-11-05T09:38:56.914Z,100571.44
2022-11-05T09:44:04.452Z,100580.50
2022-11-05T09:49:12.324Z,100587.25
2022-11-05T09:54:15.183Z,100588.84
2022-11-05T09:59:51.973Z,100601.88
2022-11-05T10:04:56.861Z,100608.69
2022-11-05T10:10:02.286Z,100605.75
2022-11-05T10:15:22.271Z,100608.34
2022-11-05T10:20:33.581Z,100607.94
2022-11-05T10:25:41.091Z,100616.63
2022-11-05T10:30:44.239Z,100607.94
2022-11-05T10:35:53.926Z,100614.47
2022-11-05T10:41:08.534Z,100614.44
2022-11-05T10:46:28.686Z,100615.72
2022-11-05T10:51:31.945Z,100621.59
2022-11-05T10:56:36.582Z,100624.59
2022-11-05T11:01:38.165Z,100620.31
2022-11-05T11:06:47.862Z,100627.28
2022-11-05T11:12:01.087Z,100627.13
2022-11-05T11:17:27.884Z,100622.97
2022-11-05T11:22:29.608Z,100621.53
2022-11-05T11:27:34.294Z,100607.78
2022-11-05T11:32:39.870Z,100603.19
2022-11-05T11:37:42.066Z,100601.47
2022-11-05T11:42:49.148Z,100599.00
2022-11-05T11:47:50.940Z,100601.91
2022-11-05T11:52:52.291Z,100601.69
2022-11-05T11:58:06.383Z,100590.38
2022-11-05T12:03:32.597Z,100596.63
2022-11-05T12:08:42.989Z,100590.31
2022-11-05T12:14:02.210Z,100579.84
2022-11-05T12:19:45.678Z,100581.34
2022-11-05T12:24:52.459Z,100579.75
2022-11-05T12:30:02.441Z,100580.84
2022-11-05T12:35:14.589Z,100590.19
2022-11-05T12:40:31.613Z,100584.97
2022-11-05T12:45:50.601Z,100591.00
2022-11-05T12:50:59.280Z,100595.41
2022-11-05T12:56:06.591Z,100592.47
2022-11-05T13:01:17.861Z,100604.19
2022-11-05T13:06:25.452Z,100596.25
2022-11-05T13:11:36.126Z,100607.97
2022-11-05T13:16:42.541Z,100605.34
2022-11-05T13:21:48.136Z,100595.19
2022-11-05T13:26:55.167Z,100602.84
2022-11-05T13:32:02.826Z,100604.09
2022-11-05T13:37:25.242Z,100604.97
2022-11-05T13:43:07.422Z,100615.59
2022-11-05T13:48:27.121Z,100611.63
2022-11-05T13:53:47.006Z,100600.75
2022-11-05T13:59:23.426Z,100607.34
2022-11-05T14:04:36.058Z,100603.38
2022-11-05T14:09:39.827Z,100607.69
2022-11-05T14:14:46.490Z,100613.00
2022-11-05T14:20:05.458Z,100606.47
2022-11-05T14:25:19.160Z,100608.91
2022-11-05T14:30:41.226Z,100602.94
2022-11-05T14:35:43.221Z,100602.13
2022-11-05T14:40:45.940Z,100613.13
2022-11-05T14:46:02.443Z,100614.56
2022-11-05T14:51:25.587Z,100609.44
2022-11-05T14:56:27.084Z,100612.34
2022-11-05T15:01:31.593Z,100616.50
2022-11-05T15:06:36.199Z,100610.97
2022-11-05T15:11:56.809Z,100616.06
2022-11-05T15:17:14.060Z,100625.88
2022-11-05T15:22:25.884Z,100615.50
2022-11-05T15:27:50.157Z,100606.03
2022-11-05T15:32:52.126Z,100623.31
2022-11-05T15:38:01.781Z,100624.91
2022-11-05T15:43:17.347Z,100621.41
2022-11-05T15:48:19.719Z,100625.06
2022-11-05T15:59:03.545Z,100620.09
2022-11-05T16:04:19.577Z,100617.16
2022-11-05T16:09:27.183Z,100618.28
2022-11-05T16:14:35.063Z,100615.28
2022-11-05T16:19:40.697Z,100619.09
2022-11-05T16:24:43.173Z,100625.66
2022-11-05T16:29:56.088Z,100621.97
2022-11-05T16:35:02.834Z,100626.97
2022-11-05T16:40:15.195Z,100629.00
2022-11-05T16:45:18.787Z,100631.88
2022-11-05T16:50:31.898Z,100648.81
2022-11-05T16:55:36.166Z,100664.78
2022-11-05T17:00:38.703Z,100683.50
2022-11-05T17:05:40.115Z,100687.28
2022-11-05T17:10:41.512Z,100700.63
2022-11-05T17:15:45.452Z,100696.13
2022-11-05T17:20:52.128Z,100700.44
2022-11-05T17:25:56.055Z,100691.44
2022-11-05T17:31:02.178Z,100698.53
2022-11-05T17:36:08.605Z,100704.81
2022-11-05T17:41:12.569Z,100702.16
2022-11-05T17:46:16.453Z,100705.03
2022-11-05T17:51:19.601Z,100713.19
2022-11-05T17:56:30.598Z,100718.25
2022-11-05T18:01:43.080Z,100711.84
2022-11-05T18:06:44.772Z,100716.59
2022-11-05T18:11:46.463Z,100710.72
2022-11-05T18:16:48.203Z,100715.09
2022-11-05T18:21:49.665Z,100731.59
2022-11-05T18:26:51.154Z,100729.72
2022-11-05T18:31:52.519Z,100753.44
2022-11-05T18:36:56.550Z,100749.25
2022-11-05T18:41:58.204Z,100749.94
2022-11-05T18:46:59.566Z,100762.34
2022-11-05T18:52:00.925Z,100754.97
2022-11-05T18:57:02.490Z,100753.78
2022-11-05T19:02:04.133Z,100750.78
2022-11-05T19:07:07.033Z,100748.59
2022-11-05T19:12:08.504Z,100758.50
2022-11-05T19:17:10.363Z,100755.66
2022-11-05T19:22:11.773Z,100750.59
2022-11-05T19:27:13.150Z,100756.16
2022-11-05T19:32:14.813Z,100749.59
2022-11-05T19:37:16.188Z,100748.56
2022-11-05T19:42:17.604Z,100747.59
2022-11-05T19:47:18.974Z,100749.56
2022-11-05T19:52:20.567Z,100739.69
2022-11-05T19:57:21.942Z,100736.31
2022-11-05T20:02:23.422Z,100750.91
2022-11-05T20:07:24.881Z,100746.03
2022-11-05T20:12:26.269Z,100748.06
2022-11-05T20:17:27.795Z,100751.56
2022-11-05T20:22:29.192Z,100759.47
2022-11-05T20:27:30.525Z,100754.41
2022-11-05T20:32:31.927Z,100762.47
2022-11-05T20:37:33.317Z,100761.63
2022-11-05T20:42:36.360Z,100765.25
2022-11-05T20:47:37.685Z,100767.94
2022-11-05T20:52:39.040Z,100767.06
2022-11-05T20:57:40.379Z,100773.81
2022-11-05T21:02:42.024Z,100769.25
2022-11-05T21:07:44.275Z,100763.22
2022-11-05T21:12:45.619Z,100763.91
2022-11-05T21:17:46.987Z,100761.06
2022-11-05T21:22:48.591Z,100767.81
2022-11-05T21:27:49.917Z,100766.28
2022-11-05T21:32:52.007Z,100766.84
2022-11-05T21:37:53.468Z,100759.06
2022-11-05T21:42:54.818Z,100758.78
2022-11-05T21:47:56.658Z,100766.50
2022-11-05T21:53:16.574Z,100761.94
2022-11-05T21:58:37.017Z,100762.13
2022-11-05T22:03:38.453Z,100762.81
2022-11-05T22:08:39.801Z,100761.81
2022-11-05T22:13:41.138Z,100768.19
2022-11-05T22:18:42.508Z,100774.25
2022-11-05T22:23:43.856Z,100780.09
2022-11-05T22:28:45.379Z,100777.91
2022-11-05T22:33:46.992Z,100763.34
2022-11-05T22:38:48.362Z,100762.13
2022-11-05T22:43:50.081Z,100773.56
2022-11-05T22:48:52.252Z,100768.66
2022-11-05T22:53:54.838Z,100774.91
2022-11-05T22:58:56.991Z,100770.63
2022-11-05T23:03:59.053Z,100770.97
2022-11-05T23:09:19.464Z,100773.19
2022-11-05T23:14:20.807Z,100757.19
2022-11-05T23:19:41.356Z,100751.50
2022-11-05T23:24:42.828Z,100752.50
2022-11-05T23:29:44.190Z,100743.75
2022-11-05T23:34:45.520Z,100730.16
2022-11-05T23:39:46.925Z,100735.03
2022-11-05T23:45:10.339Z,100730.31
2022-11-05T23:50:14.504Z,100746.25
2022-11-05T23:55:15.935Z,100733.81
